Tuesday, September 30, 2014
18:01 UTC
  |  Log In   |  Register Free
Airport Search:

Live Oak County Airport
(8T6)

Live Oak County Airport Diagram
No Airport Diagram Available

FAA data valid effective September 18, 2014 - November 13, 2014 (unless otherwise noted).

 
 
 
 
 
 
 
 
 
 
 
 
 
 

Current Aviation Weather for Live Oak County Airport (8T6)

METAR data is unavailable for 8T6. The nearest METAR location is at KBEA (17.2 nm SE from 8T6).

The most recent METAR observation for KBEA was updated at: 1709
METAR Summary (Translated METAR)
KBEA
301655Z AUTO 07004KT 10SM SCT026 SCT032 SCT041 29/22 A2987 RMK AO2 T02880216
(17.2 nm SE from 8T6)
KNOG
301656Z AUTO 08007KT 10SM BKN022 BKN029 29/23 A2987 RMK AO2 SLP096 T02940233 $
(27.9 nm SE from 8T6)
TAF Summary (Translated TAF)
KALI
(39.3 nm SW from KBEA)
301643Z 3017/0112 08004KT P6SM SCT025 BKN100 TEMPO 3017/3018 BKN005 BKN025 OVC100 FM301900 07009KT P6SM VCTS BKN035CB FM302300 09012KT P6SM SCT040 FM010300 12007KT P6SM SCT015 FM010700 12004KT 5SM BR SCT012 TEMPO 0110/0112 2SM BR BKN012
  Airport Weather Conditions for 8T6

Current weather conditions are
not available for 8T6


The nearest NOAA weather station
is at BEA, (17.2 nm SE from 8T6)
  
 Current Weather at BEA
84° F
Partly Cloudy
East winds at 4.6 mph
BEA NOAA Radar

Pressure: 29.87 in
Humidity: 65%
Wind: East at 4.6 MPH (4 KT)
Dew Point: 70.9°F
Visibility: 10.00 mi


Airport Weather Forecast for 8T6

Translated METAR and TAF for KBEA
Translated METAR for KBEA (1755 UTC 30 September 2014)
found at http://aviationweather.gov/adds/metars/
 
METAR text: KBEA 301735Z AUTO 06003KT 10SM SCT030 SCT035 SCT041 30/21 A2986 RMK AO2 T02950211
Conditions at: KBEA (BEEVILLE MUNI , TX, US) observed 1735 UTC 30 September 2014
Temperature: 29.5°C (85°F)
Dewpoint: 21.1°C (70°F) [RH = 61%]
Pressure (altimeter): 29.86 inches Hg (1011.3 mb)
Winds: from the ENE (60 degrees) at 3 MPH (3 knots; 1.6 m/s)
Visibility: 10 or more miles (16+ km)
Ceiling: at least 12,000 feet AGL
Clouds: scattered clouds at 3000 feet AGL
scattered clouds at 3500 feet AGL
scattered clouds at 4100 feet AGL
Weather: automated observation with no human augmentation;
there may or may not be significant weather present at this time
Translated TAF for KBEA

There is no translated TAF available for this airport

Find All Airport Services Find A Hotel Find A Rental Car Find A Golf Course Find A Restaurant $100 Hamburger



FBO's on the Field
FBO Company Facility Photos Services Transportation Aviation Fuel Prices: Prices include tax
Catering Weather Repair Courtesy Rental Type 100LL JetA JetA+ MOGAS 8087
 
Live Oak Co. Airport

This FBO has not yet been rated
FS:Avfuel
Last Updated: Sep-08
Login to update fuel prices
SS:
Contact Live Oak Co. AirportMore FBO Information
 
Add another FBO Facility Photos Catering Weather Repair Courtesy Rental Type 100LL JetA JetA+ MOGAS 8087
Services Transportation Aviation Fuel Prices: Prices include tax


model-print
model-print
model-print
model-print